Time;durP1;ratioP1;P1;durP2;ratioP2;P2;SDS_P1;SDS_P2;PMS_P1;PMS_P2;Temp;Humidity;BMP_temperature;BMP_pressure;BME280_temperature;BME280_humidity;BME280_pressure;Samples;Min_cycle;Max_cycle;Signal;HPM_P1;HPM_P2
2022/01/11 00:01:09;;;;;;;9.80;5.80;;;;;;;-5.79;79.74;100204.40;109359;1274;22449;-58
2022/01/11 00:03:38;;;;;;;8.50;5.30;;;;;;;-5.78;79.84;100210.83;109362;1274;22417;-59
2022/01/11 00:06:51;;;;;;;8.50;5.00;;;;;;;-5.77;79.88;100209.25;109319;1272;138227;-59
2022/01/11 00:09:07;;;;;;;8.50;5.60;;;;;;;-5.76;79.92;100212.38;109244;1274;22476;-59
2022/01/11 00:11:35;;;;;;;8.20;5.20;;;;;;;-5.74;80.24;100213.47;109267;1274;138550;-59
2022/01/11 00:14:03;;;;;;;8.50;5.10;;;;;;;-5.71;80.33;100214.61;109345;1274;22422;-59
2022/01/11 00:16:32;;;;;;;12.40;6.00;;;;;;;-5.68;80.28;100217.35;106804;1274;139528;-58
2022/01/11 00:19:05;;;;;;;9.30;4.70;;;;;;;-5.66;80.33;100217.02;104963;1274;23070;-58
2022/01/11 00:21:34;;;;;;;6.70;4.60;;;;;;;-5.65;80.24;100219.60;104911;1274;26292;-59
2022/01/11 00:26:48;;;;;;;10.90;6.20;;;;;;;-5.69;80.02;100227.04;104989;1274;26099;-59
2022/01/11 00:29:16;;;;;;;9.10;5.40;;;;;;;-5.73;80.02;100228.00;104682;1274;138624;-58
2022/01/11 00:31:46;;;;;;;10.30;5.60;;;;;;;-5.73;79.94;100232.30;104904;1274;23954;-59
2022/01/11 00:34:17;;;;;;;8.10;4.80;;;;;;;-5.73;80.16;100233.52;104829;1274;139374;-59
2022/01/11 00:36:45;;;;;;;8.20;4.80;;;;;;;-5.72;80.19;100232.04;104939;1275;24277;-58
2022/01/11 00:39:13;;;;;;;8.90;4.90;;;;;;;-5.71;80.04;100232.31;104973;1274;22764;-58
2022/01/11 00:41:42;;;;;;;7.80;5.10;;;;;;;-5.70;80.14;100238.05;104830;1274;139384;-58
2022/01/11 00:44:10;;;;;;;9.30;5.00;;;;;;;-5.68;79.92;100240.17;109251;1274;22471;-58
2022/01/11 00:46:40;;;;;;;8.00;4.80;;;;;;;-5.68;80.04;100236.33;109260;1274;137836;-59
2022/01/11 00:49:08;;;;;;;9.50;5.40;;;;;;;-5.67;79.82;100239.95;109359;1274;22471;-59
2022/01/11 00:51:36;;;;;;;7.50;4.90;;;;;;;-5.69;79.52;100239.08;109429;1274;23242;-58
2022/01/11 00:54:04;;;;;;;8.20;5.00;;;;;;;-5.69;79.55;100243.62;109343;1273;138545;-60
2022/01/11 00:56:32;;;;;;;10.50;4.60;;;;;;;-5.69;79.41;100237.49;109354;1274;22474;-58
2022/01/11 00:58:59;;;;;;;11.50;4.90;;;;;;;-5.68;79.09;100245.15;109312;1274;138667;-58
2022/01/11 01:01:33;;;;;;;7.40;3.80;;;;;;;-5.68;79.05;100243.41;109346;1274;22580;-58
2022/01/11 01:04:01;;;;;;;7.40;4.00;;;;;;;-5.68;79.57;100250.99;109400;1273;22436;-59
2022/01/11 01:06:29;;;;;;;6.60;4.00;;;;;;;-5.66;79.95;100251.19;109332;1273;137939;-58
2022/01/11 01:08:59;;;;;;;8.00;4.00;;;;;;;-5.66;79.64;100253.63;109315;1273;23655;-58
2022/01/11 01:11:28;;;;;;;8.20;4.70;;;;;;;-5.66;79.49;100258.26;109093;1275;138054;-58
2022/01/11 01:13:57;;;;;;;7.00;3.80;;;;;;;-5.68;79.13;100253.64;109338;1274;22589;-58
2022/01/11 01:16:25;;;;;;;9.60;5.20;;;;;;;-5.71;78.83;100259.34;109091;1274;139189;-65
2022/01/11 01:18:58;;;;;;;10.60;5.20;;;;;;;-5.73;78.90;100256.55;109265;1274;23463;-65
2022/01/11 01:21:26;;;;;;;9.50;4.70;;;;;;;-5.75;78.75;100252.97;109456;1273;22457;-65
2022/01/11 01:23:54;;;;;;;6.70;4.30;;;;;;;-5.76;78.50;100256.27;109147;1274;138239;-65
2022/01/11 01:26:21;;;;;;;11.60;5.60;;;;;;;-5.75;78.24;100263.59;109289;1274;23468;-65
2022/01/11 01:28:49;;;;;;;8.50;5.00;;;;;;;-5.75;77.94;100263.23;109140;1274;139662;-65
2022/01/11 01:31:18;;;;;;;9.00;4.90;;;;;;;-5.75;77.62;100260.93;109339;1274;22304;-65
2022/01/11 01:33:46;;;;;;;7.90;4.90;;;;;;;-5.72;77.66;100265.52;109365;1274;22527;-65
2022/01/11 01:36:14;;;;;;;10.20;5.30;;;;;;;-5.71;77.60;100268.38;109241;1274;138307;-65
2022/01/11 01:38:42;;;;;;;11.20;5.00;;;;;;;-5.72;77.55;100271.14;109305;1274;22537;-66
2022/01/11 01:41:16;;;;;;;9.30;4.90;;;;;;;-5.73;77.59;100275.44;109355;1274;137957;-66
2022/01/11 01:43:46;;;;;;;9.10;5.60;;;;;;;-5.72;77.50;100276.64;109444;1271;22442;-66
2022/01/11 01:46:15;;;;;;;10.70;5.40;;;;;;;-5.71;77.99;100280.98;107268;1274;138737;-65
2022/01/11 01:48:44;;;;;;;9.80;5.30;;;;;;;-5.72;79.55;100274.69;105038;1274;25973;-65
2022/01/11 01:51:12;;;;;;;12.40;5.40;;;;;;;-5.74;80.31;100274.34;104943;1274;23606;-65
2022/01/11 01:53:46;;;;;;;7.50;4.60;;;;;;;-5.75;80.29;100280.95;104869;1274;138846;-65
2022/01/11 01:56:16;;;;;;;11.70;4.70;;;;;;;-5.76;80.33;100279.67;109340;1274;23259;-66
2022/01/11 01:58:44;;;;;;;12.40;5.50;;;;;;;-5.77;80.40;100281.00;109235;1274;138837;-66
2022/01/11 02:01:13;;;;;;;8.70;4.40;;;;;;;-5.77;80.52;100281.86;109331;1274;22760;-65
2022/01/11 02:03:45;;;;;;;8.90;4.60;;;;;;;-5.76;80.31;100283.15;109316;1274;22430;-66
2022/01/11 02:06:17;;;;;;;8.40;4.60;;;;;;;-5.76;79.99;100282.27;109154;1274;138431;-66
2022/01/11 02:08:47;;;;;;;6.60;4.30;;;;;;;-5.77;79.25;100289.28;109308;1273;23335;-66
2022/01/11 02:11:16;;;;;;;9.90;5.70;;;;;;;-5.80;78.74;100285.49;109187;1274;140095;-66
2022/01/11 02:13:45;;;;;;;8.90;5.40;;;;;;;-5.81;78.66;100285.20;109304;1274;22448;-66
2022/01/11 02:16:14;;;;;;;9.30;5.50;;;;;;;-5.80;78.52;100289.38;109201;1274;138262;-63
2022/01/11 02:18:42;;;;;;;9.10;6.00;;;;;;;-5.79;78.30;100288.42;109421;1272;22553;-64
2022/01/11 02:21:14;;;;;;;9.70;5.20;;;;;;;-5.77;78.11;100291.77;109270;1274;22439;-63
2022/01/11 02:23:42;;;;;;;10.70;5.00;;;;;;;-5.77;77.76;100287.63;109147;1274;138951;-64
2022/01/11 02:26:10;;;;;;;7.80;4.60;;;;;;;-5.74;77.90;100293.11;109340;1274;22444;-65
2022/01/11 02:28:40;;;;;;;6.90;4.20;;;;;;;-5.74;77.78;100294.46;109153;1274;138520;-65
2022/01/11 02:31:12;;;;;;;9.10;5.00;;;;;;;-5.73;77.84;100289.83;109242;1274;22458;-65
2022/01/11 02:33:45;;;;;;;10.20;5.00;;;;;;;-5.74;77.87;100289.04;109281;1275;22671;-65
2022/01/11 02:36:33;;;;;;;8.50;5.60;;;;;;;-5.75;78.00;100291.23;109209;1274;137248;-65
2022/01/11 02:39:16;;;;;;;9.00;4.90;;;;;;;-5.74;78.07;100295.02;109337;1274;23237;-65
2022/01/11 02:41:51;;;;;;;9.50;5.50;;;;;;;-5.75;78.31;100294.54;109218;1274;138134;-65
2022/01/11 02:44:23;;;;;;;8.80;5.20;;;;;;;-5.74;78.69;100296.58;109185;1274;22425;-65
2022/01/11 02:46:51;;;;;;;9.80;5.30;;;;;;;-5.73;78.66;100298.63;106227;1274;139527;-66
2022/01/11 02:49:19;;;;;;;8.40;5.50;;;;;;;-5.74;78.74;100297.84;104859;1276;24046;-67
2022/01/11 02:51:50;;;;;;;7.00;4.30;;;;;;;-5.75;78.94;100300.38;104928;1276;24018;-66
2022/01/11 02:54:18;;;;;;;8.30;4.60;;;;;;;-5.74;79.99;100303.51;104801;1276;139744;-67
2022/01/11 02:56:46;;;;;;;13.20;4.80;;;;;;;-5.73;80.28;100308.38;104986;1275;23022;-66
2022/01/11 02:59:14;;;;;;;10.70;5.60;;;;;;;-5.72;80.27;100308.44;105164;1275;139200;-66
2022/01/11 03:01:42;;;;;;;9.00;5.10;;;;;;;-5.71;80.07;100304.14;109256;1274;23435;-67
2022/01/11 03:04:10;;;;;;;11.10;5.30;;;;;;;-5.69;79.84;100307.14;109156;1274;136418;-66
2022/01/11 03:06:38;;;;;;;15.20;5.30;;;;;;;-5.68;79.95;100310.46;109395;1274;23126;-67
2022/01/11 03:09:06;;;;;;;8.10;5.40;;;;;;;-5.67;80.12;100313.40;109217;1274;22672;-67
2022/01/11 03:11:36;;;;;;;10.40;6.00;;;;;;;-5.68;81.30;100316.98;109084;1276;139086;-67
2022/01/11 03:14:04;;;;;;;9.40;5.70;;;;;;;-5.69;81.77;100318.14;109222;1274;22890;-67
2022/01/11 03:16:32;;;;;;;9.80;5.80;;;;;;;-5.70;81.88;100317.29;109182;1274;139404;-66
2022/01/11 03:19:00;;;;;;;9.30;4.80;;;;;;;-5.68;82.11;100316.84;109265;1274;22648;-65
2022/01/11 03:21:30;;;;;;;7.40;5.00;;;;;;;-5.69;81.94;100315.11;109267;1274;22457;-66
2022/01/11 03:23:59;;;;;;;8.30;5.20;;;;;;;-5.69;82.07;100318.81;109075;1274;139071;-68
2022/01/11 03:26:27;;;;;;;10.20;4.80;;;;;;;-5.68;82.14;100318.23;109346;1272;22567;-66
2022/01/11 03:28:55;;;;;;;9.50;5.20;;;;;;;-5.67;82.30;100320.23;109090;1274;139386;-66
2022/01/11 03:31:23;;;;;;;9.90;4.60;;;;;;;-5.68;82.38;100322.62;109251;1274;22503;-66
2022/01/11 03:33:52;;;;;;;8.70;5.10;;;;;;;-5.66;82.57;100323.58;109266;1274;22435;-66
2022/01/11 03:36:20;;;;;;;6.90;4.50;;;;;;;-5.64;82.49;100324.04;109077;1274;139494;-66
2022/01/11 03:38:49;;;;;;;9.40;5.40;;;;;;;-5.63;82.67;100326.49;109261;1275;23316;-66
2022/01/11 03:41:17;;;;;;;5.50;3.70;;;;;;;-5.63;82.66;100327.18;109300;1274;138045;-66
2022/01/11 03:43:44;;;;;;;9.30;4.60;;;;;;;-5.59;82.70;100328.77;109308;1274;22487;-65
2022/01/11 03:46:17;;;;;;;10.70;6.10;;;;;;;-5.59;82.46;100330.45;107218;1274;137554;-67
2022/01/11 03:48:45;;;;;;;12.40;6.30;;;;;;;-5.59;82.51;100331.94;104554;1274;399439;-67
2022/01/11 03:52:06;;;;;;;13.10;5.90;;;;;;;-5.58;83.25;100328.82;101762;1309;545363;-67
2022/01/11 03:55:02;;;;;;;7.70;5.00;;;;;;;-5.59;83.42;100332.94;107996;1287;137515;-67
2022/01/11 03:57:40;;;;;;;10.60;5.30;;;;;;;-5.57;83.51;100332.60;108083;1287;22528;-65
2022/01/11 04:00:10;;;;;;;7.60;4.90;;;;;;;-5.56;83.69;100340.65;108095;1287;137514;-66
2022/01/11 04:02:41;;;;;;;9.80;5.90;;;;;;;-5.54;83.57;100338.92;108284;1287;22566;-66
2022/01/11 04:05:13;;;;;;;8.80;4.60;;;;;;;-5.54;83.70;100341.36;108140;1284;137676;-66
2022/01/11 04:07:41;;;;;;;9.00;4.50;;;;;;;-5.52;83.17;100341.77;108394;1284;22489;-66
2022/01/11 04:10:09;;;;;;;11.50;6.00;;;;;;;-5.52;82.73;100344.75;108572;1284;22518;-66
2022/01/11 04:12:38;;;;;;;9.90;5.50;;;;;;;-5.50;82.52;100344.06;109000;1277;139355;-66
2022/01/11 04:15:08;;;;;;;10.00;5.50;;;;;;;-5.47;82.65;100347.19;109147;1277;23314;-66
2022/01/11 04:17:36;;;;;;;11.30;5.10;;;;;;;-5.46;82.69;100351.63;109148;1277;138694;-64
2022/01/11 04:20:05;;;;;;;9.10;5.40;;;;;;;-5.44;82.66;100353.04;109072;1277;22459;-64
2022/01/11 04:22:34;;;;;;;9.00;5.10;;;;;;;-5.40;82.97;100359.09;109036;1277;139267;-64
2022/01/11 04:25:02;;;;;;;11.30;6.10;;;;;;;-5.38;83.10;100360.49;109317;1277;23299;-64
2022/01/11 04:27:31;;;;;;;13.70;7.30;;;;;;;-5.36;82.91;100363.70;109023;1276;22477;-64
2022/01/11 04:30:00;;;;;;;18.80;7.50;;;;;;;-5.36;82.83;100361.77;109080;1277;137970;-65
2022/01/11 04:32:28;;;;;;;14.00;6.90;;;;;;;-5.35;82.72;100364.15;109191;1277;22619;-64
2022/01/11 04:34:56;;;;;;;10.20;5.20;;;;;;;-5.35;82.68;100363.77;109115;1277;137926;-65
2022/01/11 04:37:25;;;;;;;8.70;4.50;;;;;;;-5.34;82.34;100361.73;109205;1277;24523;-65
2022/01/11 04:39:53;;;;;;;9.00;5.30;;;;;;;-5.34;82.44;100367.20;109191;1277;22937;-64
2022/01/11 04:42:21;;;;;;;10.00;5.20;;;;;;;-5.32;82.23;100363.68;108939;1277;139476;-64
2022/01/11 04:44:49;;;;;;;11.90;5.80;;;;;;;-5.31;82.43;100370.14;109107;1277;22860;-65
2022/01/11 04:47:17;;;;;;;12.20;6.10;;;;;;;-5.28;82.31;100376.27;105019;1278;138435;-64
2022/01/11 04:49:45;;;;;;;12.40;5.40;;;;;;;-5.27;82.61;100377.43;104650;1278;22597;-63
2022/01/11 04:52:13;;;;;;;11.60;5.30;;;;;;;-5.26;82.53;100378.95;104673;1278;24313;-63
2022/01/11 04:54:40;;;;;;;12.10;5.60;;;;;;;-5.27;82.81;100379.86;104575;1278;137880;-63
2022/01/11 04:57:09;;;;;;;7.60;4.40;;;;;;;-5.27;83.11;100385.42;104785;1277;25441;-65
2022/01/11 04:59:37;;;;;;;8.70;4.70;;;;;;;-5.27;83.40;100384.84;109054;1277;138873;-66
2022/01/11 05:02:05;;;;;;;7.20;4.20;;;;;;;-5.26;83.55;100385.12;109112;1277;22443;-66
2022/01/11 05:04:33;;;;;;;10.00;5.10;;;;;;;-5.27;84.06;100390.65;108930;1277;138915;-65
2022/01/11 05:07:01;;;;;;;7.00;4.60;;;;;;;-5.28;85.03;100390.42;108958;1277;22461;-66
2022/01/11 05:09:29;;;;;;;9.40;5.10;;;;;;;-5.31;86.23;100391.02;109017;1277;22478;-66
2022/01/11 05:11:57;;;;;;;5.60;3.70;;;;;;;-5.34;86.67;100392.87;109051;1277;137567;-65
2022/01/11 05:14:25;;;;;;;8.00;3.80;;;;;;;-5.33;86.58;100392.79;109088;1277;22436;-66
2022/01/11 05:16:53;;;;;;;7.50;3.90;;;;;;;-5.33;86.15;100393.34;108918;1277;139000;-67
2022/01/11 05:19:22;;;;;;;10.50;5.60;;;;;;;-5.32;86.00;100399.61;108970;1277;22476;-66
2022/01/11 05:21:50;;;;;;;8.00;4.30;;;;;;;-5.30;85.52;100401.60;109032;1277;22472;-67
2022/01/11 05:24:19;;;;;;;9.60;4.30;;;;;;;-5.26;85.80;100407.41;108907;1277;138766;-67
2022/01/11 05:26:49;;;;;;;10.50;4.10;;;;;;;-5.23;85.13;100412.45;109190;1277;22512;-66
2022/01/11 05:29:17;;;;;;;9.00;4.30;;;;;;;-5.22;85.20;100411.00;108897;1277;137531;-67
2022/01/11 05:31:45;;;;;;;10.40;5.20;;;;;;;-5.21;85.49;100415.13;109076;1277;22488;-67
2022/01/11 05:34:13;;;;;;;7.70;4.00;;;;;;;-5.19;85.27;100423.42;109059;1277;22528;-67
2022/01/11 05:36:41;;;;;;;11.10;4.50;;;;;;;-5.18;84.60;100421.23;108957;1277;138301;-67
2022/01/11 05:39:09;;;;;;;8.50;4.20;;;;;;;-5.16;84.43;100428.64;109061;1277;23715;-66
2022/01/11 05:41:37;;;;;;;10.50;4.40;;;;;;;-5.15;84.28;100432.13;108927;1277;139507;-67
2022/01/11 05:44:05;;;;;;;9.00;4.70;;;;;;;-5.14;84.12;100431.35;108903;1277;23682;-67
2022/01/11 05:46:35;;;;;;;6.50;4.30;;;;;;;-5.12;84.05;100435.77;108950;1277;138946;-66
2022/01/11 05:49:04;;;;;;;7.90;4.00;;;;;;;-5.11;84.03;100442.04;109075;1277;22594;-67
2022/01/11 05:51:33;;;;;;;10.40;4.20;;;;;;;-5.10;84.05;100443.67;109069;1277;23566;-67
2022/01/11 05:54:01;;;;;;;6.20;4.10;;;;;;;-5.09;84.18;100445.95;108860;1277;139221;-67
2022/01/11 05:56:29;;;;;;;7.00;4.60;;;;;;;-5.06;84.23;100450.31;109181;1277;22528;-66
2022/01/11 05:58:59;;;;;;;11.50;5.70;;;;;;;-5.05;83.84;100449.47;108978;1277;137819;-66
2022/01/11 06:01:28;;;;;;;11.90;5.80;;;;;;;-5.04;83.47;100456.09;109201;1277;22482;-67
2022/01/11 06:03:57;;;;;;;10.30;5.60;;;;;;;-5.05;83.98;100452.43;109167;1277;22422;-67
2022/01/11 06:06:25;;;;;;;9.80;6.00;;;;;;;-5.05;84.26;100462.32;108901;1277;138621;-66
2022/01/11 06:09:00;;;;;;;9.30;4.80;;;;;;;-5.04;84.04;100463.39;108949;1277;22453;-65
2022/01/11 06:11:29;;;;;;;7.20;4.80;;;;;;;-5.04;84.02;100464.78;108943;1277;139335;-65
2022/01/11 06:13:58;;;;;;;10.30;5.70;;;;;;;-5.04;83.69;100464.45;108987;1277;22450;-66
2022/01/11 06:16:25;;;;;;;7.50;4.30;;;;;;;-5.03;83.73;100470.72;108851;1277;139148;-65
2022/01/11 06:18:54;;;;;;;7.20;4.20;;;;;;;-5.02;83.88;100472.43;109234;1277;23328;-65
2022/01/11 06:21:28;;;;;;;7.50;4.20;;;;;;;-5.01;83.97;100477.48;109077;1277;22467;-67
2022/01/11 06:23:56;;;;;;;7.30;4.10;;;;;;;-5.02;84.07;100478.59;108967;1277;138693;-66
2022/01/11 06:26:24;;;;;;;6.20;3.70;;;;;;;-5.03;84.13;100480.26;109213;1277;23780;-66
2022/01/11 06:28:52;;;;;;;9.10;5.10;;;;;;;-5.03;84.17;100482.72;108870;1277;139277;-65
2022/01/11 06:31:20;;;;;;;43.00;13.40;;;;;;;-5.01;84.21;100479.58;108992;1277;22527;-65
2022/01/11 06:33:48;;;;;;;21.10;8.20;;;;;;;-5.00;84.30;100478.40;105537;1277;24356;-65
2022/01/11 06:36:19;;;;;;;8.60;5.40;;;;;;;-4.99;84.32;100482.91;104555;1278;138356;-65
2022/01/11 06:38:47;;;;;;;11.40;7.20;;;;;;;-4.97;84.34;100485.09;104612;1278;22560;-68
2022/01/11 06:41:18;;;;;;;8.20;4.70;;;;;;;-4.98;84.32;100487.30;109023;1277;140155;-68
2022/01/11 06:43:46;;;;;;;9.80;5.40;;;;;;;-5.00;84.60;100489.54;109205;1277;22450;-69
2022/01/11 06:46:14;;;;;;;12.90;6.10;;;;;;;-4.98;84.96;100494.04;107171;1278;22566;-68
2022/01/11 06:48:43;;;;;;;12.80;5.90;;;;;;;-4.96;85.00;100494.39;109078;1275;137890;-68
2022/01/11 06:51:12;;;;;;;7.90;4.90;;;;;;;-4.95;85.05;100494.09;109045;1277;22493;-68
2022/01/11 06:53:45;;;;;;;6.00;3.80;;;;;;;-4.93;84.85;100501.18;108818;1277;137952;-68
2022/01/11 06:56:13;;;;;;;9.40;4.50;;;;;;;-4.92;84.76;100502.02;109116;1277;22437;-68
2022/01/11 06:58:41;;;;;;;6.80;4.10;;;;;;;-4.94;84.53;100501.98;108837;1277;137593;-68
2022/01/11 07:01:10;;;;;;;9.80;5.60;;;;;;;-4.94;84.58;100509.81;109042;1277;22470;-68
2022/01/11 07:03:39;;;;;;;7.30;4.30;;;;;;;-4.93;84.54;100506.38;108960;1277;22568;-68
2022/01/11 07:06:23;;;;;;;8.80;5.40;;;;;;;-4.93;84.50;100512.34;108850;1277;139001;-68
2022/01/11 07:08:51;;;;;;;8.60;4.60;;;;;;;-4.93;84.63;100510.44;108996;1277;23261;-69
2022/01/11 07:11:22;;;;;;;8.90;6.20;;;;;;;-4.90;84.64;100512.31;108907;1277;138333;-68
2022/01/11 07:13:50;;;;;;;9.70;5.10;;;;;;;-4.89;84.67;100515.23;109088;1277;22546;-67
2022/01/11 07:16:18;;;;;;;10.80;5.70;;;;;;;-4.88;84.92;100514.19;109171;1277;22448;-68
2022/01/11 07:18:47;;;;;;;10.20;5.20;;;;;;;-4.87;84.90;100513.60;108857;1280;138680;-68
2022/01/11 07:21:15;;;;;;;6.60;3.90;;;;;;;-4.87;85.27;100518.88;109034;1277;22449;-68
2022/01/11 07:23:43;;;;;;;7.70;4.20;;;;;;;-4.86;86.01;100522.01;109039;1277;137960;-68
2022/01/11 07:26:11;;;;;;;7.20;4.30;;;;;;;-4.85;86.39;100516.24;109110;1277;22569;-68
2022/01/11 07:28:39;;;;;;;8.90;4.80;;;;;;;-4.83;86.50;100517.31;109042;1277;138014;-68
2022/01/11 07:31:11;;;;;;;9.30;5.60;;;;;;;-4.81;86.21;100515.86;109146;1277;22473;-69
2022/01/11 07:33:43;;;;;;;7.10;4.20;;;;;;;-4.79;85.89;100517.00;109084;1276;22499;-69
2022/01/11 07:36:11;;;;;;;6.90;4.30;;;;;;;-4.79;85.52;100519.13;109103;1276;137477;-68
2022/01/11 07:38:40;;;;;;;7.30;4.50;;;;;;;-4.80;84.99;100519.90;108976;1277;23329;-68
2022/01/11 07:41:12;;;;;;;7.80;4.70;;;;;;;-4.82;84.52;100522.05;108993;1276;138159;-68
2022/01/11 07:44:00;;;;;;;6.00;4.00;;;;;;;-4.83;84.31;100524.20;109071;1277;23304;-69
2022/01/11 07:46:34;;;;;;;7.20;4.00;;;;;;;-4.83;84.29;100524.20;109001;1276;139543;-69
2022/01/11 07:49:05;;;;;;;6.90;3.80;;;;;;;-4.83;84.33;100528.28;109095;1277;22276;-69
2022/01/11 07:51:34;;;;;;;9.70;4.70;;;;;;;-4.81;84.34;100529.17;109063;1277;22470;-69
2022/01/11 07:54:06;;;;;;;7.90;4.60;;;;;;;-4.81;84.30;100528.99;108911;1277;139885;-70
2022/01/11 07:56:35;;;;;;;5.80;4.00;;;;;;;-4.79;84.37;100532.55;109121;1277;22468;-69
2022/01/11 07:59:03;;;;;;;6.50;3.80;;;;;;;-4.77;84.51;100535.20;109304;1273;138648;-69
2022/01/11 08:01:35;;;;;;;8.20;4.60;;;;;;;-4.77;85.29;100530.65;109390;1273;22526;-69
2022/01/11 08:04:04;;;;;;;7.60;4.40;;;;;;;-4.77;85.20;100530.41;109510;1272;22443;-69
2022/01/11 08:06:37;;;;;;;8.00;4.30;;;;;;;-4.76;85.15;100535.51;109330;1273;138471;-69
2022/01/11 08:09:10;;;;;;;8.10;4.60;;;;;;;-4.76;85.13;100534.36;109435;1273;22496;-69
2022/01/11 08:11:38;;;;;;;8.80;5.20;;;;;;;-4.75;84.84;100536.60;109313;1273;140222;-69
2022/01/11 08:14:06;;;;;;;8.60;4.90;;;;;;;-4.75;84.80;100542.64;109426;1274;22532;-69
2022/01/11 08:16:34;;;;;;;9.90;5.00;;;;;;;-4.74;84.56;100540.75;109370;1274;138969;-69
2022/01/11 08:19:25;;;;;;;8.20;4.20;;;;;;;-4.74;83.55;100542.94;109414;1272;23212;-69
2022/01/11 08:21:56;;;;;;;10.10;4.90;;;;;;;-4.76;83.59;100543.84;109401;1274;22460;-70
2022/01/11 08:24:32;;;;;;;10.50;4.60;;;;;;;-4.78;83.61;100540.98;109309;1274;138258;-70
2022/01/11 08:27:00;;;;;;;8.00;4.50;;;;;;;-4.80;83.68;100540.76;109462;1273;22552;-69
2022/01/11 08:29:29;;;;;;;10.00;4.60;;;;;;;-4.79;83.54;100538.08;109311;1273;138644;-69
2022/01/11 08:32:01;;;;;;;10.90;4.80;;;;;;;-4.77;83.74;100539.84;109394;1274;22647;-69
2022/01/11 08:34:30;;;;;;;7.90;4.10;;;;;;;-4.74;83.42;100539.55;109287;1273;138452;-69
2022/01/11 08:36:59;;;;;;;9.60;5.20;;;;;;;-4.74;83.22;100542.54;109420;1274;23514;-70
2022/01/11 08:39:29;;;;;;;11.20;5.70;;;;;;;-4.74;82.91;100541.16;109377;1274;23224;-71
2022/01/11 08:41:57;;;;;;;11.10;5.80;;;;;;;-4.74;83.02;100539.16;109345;1273;138084;-71
2022/01/11 08:44:24;;;;;;;13.00;7.00;;;;;;;-4.73;82.93;100540.51;109459;1273;23535;-71
2022/01/11 08:46:54;;;;;;;12.00;6.10;;;;;;;-4.71;82.99;100545.79;106200;1274;138046;-70
2022/01/11 08:49:27;;;;;;;13.20;6.10;;;;;;;-4.72;82.85;100542.01;109470;1273;23632;-71
2022/01/11 08:51:55;;;;;;;10.70;6.40;;;;;;;-4.70;82.71;100548.75;109387;1274;23390;-71
2022/01/11 08:54:24;;;;;;;10.30;4.70;;;;;;;-4.69;82.72;100547.91;109350;1272;138334;-71
2022/01/11 08:56:55;;;;;;;8.50;5.10;;;;;;;-4.69;82.62;100547.27;109402;1273;23209;-70
2022/01/11 08:59:25;;;;;;;8.50;5.00;;;;;;;-4.70;82.43;100540.80;109299;1274;139256;-70
2022/01/11 09:01:54;;;;;;;8.80;4.80;;;;;;;-4.71;82.44;100549.00;109429;1272;22339;-70
2022/01/11 09:04:23;;;;;;;7.20;4.50;;;;;;;-4.70;82.68;100543.83;109343;1274;23427;-70
2022/01/11 09:07:02;;;;;;;8.10;4.20;;;;;;;-4.70;82.58;100541.80;109319;1274;138182;-70
2022/01/11 09:09:32;;;;;;;9.90;5.70;;;;;;;-4.69;82.51;100538.94;109286;1272;23748;-70
2022/01/11 09:12:03;;;;;;;10.80;6.00;;;;;;;-4.69;82.59;100536.22;109282;1273;138392;-70
2022/01/11 09:14:33;;;;;;;10.70;4.90;;;;;;;-4.68;82.63;100541.84;109343;1274;22544;-70
2022/01/11 09:17:02;;;;;;;8.30;5.40;;;;;;;-4.69;82.34;100540.70;109259;1272;137919;-70
2022/01/11 09:19:31;;;;;;;9.40;5.70;;;;;;;-4.70;82.47;100548.36;109430;1273;22491;-70
2022/01/11 09:22:00;;;;;;;8.60;5.20;;;;;;;-4.70;82.41;100540.77;109444;1272;23319;-70
2022/01/11 09:24:32;;;;;;;11.40;5.50;;;;;;;-4.70;82.56;100539.56;109271;1274;138826;-71
2022/01/11 09:27:03;;;;;;;10.30;5.60;;;;;;;-4.70;82.64;100535.60;109367;1273;22460;-70
2022/01/11 09:29:36;;;;;;;10.40;4.80;;;;;;;-4.65;82.56;100538.40;109299;1274;139240;-70
2022/01/11 09:32:05;;;;;;;11.30;6.30;;;;;;;-4.59;82.55;100532.34;109380;1273;23334;-70
2022/01/11 09:34:37;;;;;;;14.30;6.60;;;;;;;-4.53;82.50;100534.16;109420;1274;22529;-70
2022/01/11 09:37:06;;;;;;;10.30;5.30;;;;;;;-4.47;82.45;100533.25;109286;1274;139589;-70
2022/01/11 09:39:35;;;;;;;11.80;4.80;;;;;;;-4.41;82.25;100535.23;109427;1273;23304;-69
2022/01/11 09:42:05;;;;;;;7.20;4.90;;;;;;;-4.38;81.96;100531.59;109339;1273;139776;-70
2022/01/11 09:44:34;;;;;;;9.60;4.90;;;;;;;-4.37;81.82;100525.05;109434;1272;22445;-69
2022/01/11 09:47:04;;;;;;;9.20;4.70;;;;;;;-4.34;81.71;100523.37;109400;1272;138227;-69
2022/01/11 09:49:32;;;;;;;6.20;4.00;;;;;;;-4.32;81.62;100523.05;109440;1272;22652;-70
2022/01/11 09:52:02;;;;;;;6.80;4.10;;;;;;;-4.34;81.37;100522.65;109310;1273;22474;-70
2022/01/11 09:54:34;;;;;;;8.90;4.90;;;;;;;-4.35;81.32;100519.76;109303;1274;138709;-69
2022/01/11 09:57:04;;;;;;;8.40;4.80;;;;;;;-4.34;81.31;100523.55;109457;1274;22460;-70
2022/01/11 09:59:33;;;;;;;10.70;4.90;;;;;;;-4.32;81.31;100522.99;109261;1274;139382;-69
2022/01/11 10:02:01;;;;;;;9.10;4.90;;;;;;;-4.28;81.14;100523.76;109492;1272;22493;-70
2022/01/11 10:04:41;;;;;;;7.10;4.90;;;;;;;-4.25;81.17;100521.27;109365;1273;22447;-69
2022/01/11 10:07:29;;;;;;;9.40;5.00;;;;;;;-4.19;80.97;100524.03;109402;1274;22639;-70
2022/01/11 10:09:57;;;;;;;9.70;4.80;;;;;;;-4.17;80.64;100523.59;109448;1273;22616;-69
2022/01/11 10:12:26;;;;;;;7.70;5.10;;;;;;;-4.14;80.38;100518.91;109191;1274;138176;-70
2022/01/11 10:14:56;;;;;;;6.40;3.90;;;;;;;-4.13;79.95;100516.66;109523;1273;22486;-70
2022/01/11 10:17:27;;;;;;;9.90;5.20;;;;;;;-4.11;79.82;100518.45;105247;1274;138624;-70
2022/01/11 10:20:13;;;;;;;6.20;4.40;;;;;;;-4.08;79.71;100516.25;105016;1274;22578;-70
2022/01/11 10:23:03;;;;;;;5.90;3.20;;;;;;;-4.05;80.25;100517.20;104995;1274;22557;-71
2022/01/11 10:25:42;;;;;;;8.60;4.60;;;;;;;-4.04;80.37;100515.85;104844;1274;138954;-70
2022/01/11 10:28:09;;;;;;;8.60;4.90;;;;;;;-4.02;80.68;100518.36;109384;1273;23244;-70
2022/01/11 10:30:40;;;;;;;7.40;4.40;;;;;;;-4.01;80.48;100517.36;109282;1273;138556;-70
2022/01/11 10:33:09;;;;;;;9.30;4.20;;;;;;;-3.99;80.38;100516.96;109434;1273;22410;-70
2022/01/11 10:35:42;;;;;;;8.70;5.00;;;;;;;-3.96;80.25;100513.50;109308;1274;138781;-70
2022/01/11 10:38:29;;;;;;;9.70;4.50;;;;;;;-3.93;80.10;100513.92;109416;1274;22461;-70
2022/01/11 10:41:41;;;;;;;7.40;4.80;;;;;;;-3.90;79.67;100517.40;109286;1273;138601;-70
2022/01/11 10:44:10;;;;;;;19.10;12.30;;;;;;;-3.87;79.57;100519.92;109346;1274;22522;-70
2022/01/11 10:46:46;;;;;;;14.30;8.40;;;;;;;-3.85;79.37;100518.58;109423;1272;22447;-71
2022/01/11 10:49:35;;;;;;;10.70;8.50;;;;;;;-3.85;78.91;100519.61;109275;1274;138231;-71
2022/01/11 10:52:23;;;;;;;6.10;3.80;;;;;;;-3.88;78.67;100518.64;109427;1274;23180;-71
2022/01/11 10:55:16;;;;;;;5.50;3.40;;;;;;;-3.88;78.60;100516.12;109279;1274;138593;-71
2022/01/11 10:57:49;;;;;;;11.30;5.00;;;;;;;-3.87;78.48;100522.27;109353;1274;23404;-71
2022/01/11 11:00:24;;;;;;;5.80;3.60;;;;;;;-3.87;78.68;100516.82;109225;1274;140557;-71
2022/01/11 11:02:54;;;;;;;8.80;4.20;;;;;;;-3.87;79.36;100517.83;109369;1274;23052;-70
2022/01/11 11:05:26;;;;;;;9.50;4.30;;;;;;;-3.88;79.86;100521.27;109375;1273;138603;-70
2022/01/11 11:08:07;;;;;;;7.00;4.00;;;;;;;-3.85;80.08;100522.64;109374;1272;22439;-70
2022/01/11 11:10:43;;;;;;;8.90;5.10;;;;;;;-3.83;80.24;100527.19;109397;1274;22407;-70
2022/01/11 11:13:24;;;;;;;8.00;4.40;;;;;;;-3.81;79.70;100524.75;109245;1274;137966;-70
2022/01/11 11:15:55;;;;;;;6.10;3.40;;;;;;;-3.81;78.66;100527.55;108054;1274;24200;-70
2022/01/11 11:18:38;;;;;;;9.40;4.50;;;;;;;-3.84;77.59;100523.77;109290;1273;138349;-70
2022/01/11 11:21:17;;;;;;;6.90;4.00;;;;;;;-3.87;79.68;100524.02;109363;1273;22446;-69
2022/01/11 11:23:52;;;;;;;7.30;4.40;;;;;;;-3.88;80.58;100526.13;109406;1272;139303;-70
2022/01/11 11:26:21;;;;;;;7.60;4.50;;;;;;;-3.89;80.30;100523.33;109549;1272;23362;-69
2022/01/11 11:28:49;;;;;;;7.60;4.10;;;;;;;-3.89;80.09;100525.82;109417;1273;23262;-69
2022/01/11 11:31:17;;;;;;;7.00;3.80;;;;;;;-3.91;79.29;100523.73;109398;1274;137898;-70